Time;durP1;ratioP1;P1;durP2;ratioP2;P2;SDS_P1;SDS_P2;PMS_P1;PMS_P2;Temp;Humidity;BMP_temperature;BMP_pressure;BME280_temperature;BME280_humidity;BME280_pressure;Samples;Min_cycle;Max_cycle;Signal;HPM_P1;HPM_P2
2022/05/30 00:02:18;;;;;;;3.78;2.42;;;;;;;;;;5027734;28;20072;-56
2022/05/30 00:04:53;;;;;;;5.13;3.10;;;;;;;;;;5061182;28;20033;-57
2022/05/30 00:07:20;;;;;;;4.00;2.95;;;;;;;;;;5068954;28;20025;-56
2022/05/30 00:09:54;;;;;;;6.85;3.65;;;;;;;;;;5069049;28;20025;-57
2022/05/30 00:12:41;;;;;;;6.70;3.58;;;;;;;;;;5068755;28;20044;-57
2022/05/30 00:15:29;;;;;;;3.60;2.85;;;;;;;;;;5069221;28;20025;-57
2022/05/30 00:21:03;;;;;;;2.67;2.15;;;;;;;;;;5069334;28;20064;-56
2022/05/30 00:24:07;;;;;;;6.90;3.73;;;;;;;;;;5069207;28;20025;-56
2022/05/30 00:26:38;;;;;;;7.07;2.55;;;;;;;;;;5007203;28;20369;-57
2022/05/30 00:35:52;;;;;;;;;;;;;;;;;;;;;
2022/05/30 00:38:43;;;;;;;4.10;3.05;;;;;;;;;;4958597;29;20073;-56
2022/05/30 00:41:19;;;;;;;4.32;2.95;;;;;;;;;;4967609;29;20035;-57
2022/05/30 00:47:22;;;;;;;4.75;3.17;;;;;;;;;;5006813;28;20030;-55
2022/05/30 00:49:55;;;;;;;4.13;3.25;;;;;;;;;;4993373;28;20045;-57
2022/05/30 00:52:32;;;;;;;5.35;3.42;;;;;;;;;;5028553;28;20033;-57
2022/05/30 00:55:27;;;;;;;4.93;2.83;;;;;;;;;;5028330;28;20022;-56
2022/05/30 01:10:11;;;;;;;3.85;2.55;;;;;;;;;;5021123;28;20049;-58
2022/05/30 01:12:45;;;;;;;3.90;2.80;;;;;;;;;;5026183;28;20136;-57
2022/05/30 01:18:46;;;;;;;3.15;2.58;;;;;;;;;;5017291;28;20118;-58
2022/05/30 01:21:50;;;;;;;3.47;2.78;;;;;;;;;;5028320;28;20042;-58
2022/05/30 01:24:43;;;;;;;3.55;2.83;;;;;;;;;;5028310;28;20665;-58
2022/05/30 01:27:29;;;;;;;6.68;3.85;;;;;;;;;;5041515;28;20057;-58
2022/05/30 01:30:24;;;;;;;3.42;2.67;;;;;;;;;;5068257;28;20025;-57
2022/05/30 01:33:39;;;;;;;4.18;3.15;;;;;;;;;;5068400;28;20043;-57
2022/05/30 01:39:00;;;;;;;6.15;3.17;;;;;;;;;;5006644;28;20045;-58
2022/05/30 01:41:53;;;;;;;5.18;4.03;;;;;;;;;;5006848;28;20049;-58
2022/05/30 01:44:34;;;;;;;6.78;3.22;;;;;;;;;;5007115;28;20033;-55
2022/05/30 01:47:09;;;;;;;;;;;;;;;;;;5011046;28;20061;-57
2022/05/30 01:50:00;;;;;;;5.40;3.53;;;;;;;;;;5010196;28;19941;-58
2022/05/30 01:52:58;;;;;;;4.90;3.45;;;;;;;;;;5004660;28;20044;-58
2022/05/30 01:55:47;;;;;;;5.57;3.55;;;;;;;;;;5019142;28;20111;-58
2022/05/30 01:58:19;;;;;;;5.07;3.45;;;;;;;;;;5072078;28;20029;-59
2022/05/30 02:01:05;;;;;;;6.57;3.55;;;;;;;;;;5071471;28;20037;-58
2022/05/30 02:03:43;;;;;;;4.40;3.45;;;;;;;;;;5072059;28;20407;-57
2022/05/30 02:09:31;;;;;;;3.63;2.70;;;;;;;;;;5071718;28;20048;-58
2022/05/30 02:12:29;;;;;;;4.88;4.00;;;;;;;;;;5071570;28;20059;-58
2022/05/30 02:15:17;;;;;;;5.55;3.53;;;;;;;;;;5071911;28;20093;-58
2022/05/30 02:21:11;;;;;;;5.05;3.30;;;;;;;;;;5065974;28;20123;-58
2022/05/30 02:27:02;;;;;;;6.00;3.47;;;;;;;;;;5045905;28;20096;-57
2022/05/30 02:29:54;;;;;;;4.68;4.10;;;;;;;;;;5071542;28;20104;-58
2022/05/30 02:32:21;;;;;;;4.85;3.65;;;;;;;;;;5071830;28;20084;-57
2022/05/30 02:38:06;;;;;;;4.85;3.67;;;;;;;;;;5070859;28;20551;-57
2022/05/30 02:41:03;;;;;;;4.90;3.88;;;;;;;;;;5071109;28;20033;-57
2022/05/30 02:43:41;;;;;;;4.30;3.67;;;;;;;;;;5071280;28;20081;-57
2022/05/30 02:46:48;;;;;;;5.13;3.92;;;;;;;;;;5071069;28;20044;-58
2022/05/30 02:49:33;;;;;;;5.55;3.20;;;;;;;;;;4970896;29;20051;-56
2022/05/30 02:52:13;;;;;;;;;;;;;;;;;;;;;
2022/05/30 02:54:55;;;;;;;3.50;3.07;;;;;;;;;;4978071;28;20054;-56
2022/05/30 02:57:42;;;;;;;5.82;3.88;;;;;;;;;;5028960;28;20395;-58
2022/05/30 03:09:30;;;;;;;6.20;3.85;;;;;;;;;;5021249;28;20030;-57
2022/05/30 03:12:22;;;;;;;4.53;3.72;;;;;;;;;;5012812;28;20098;-58
2022/05/30 03:21:10;;;;;;;4.45;3.92;;;;;;;;;;5009270;28;20463;-57
2022/05/30 03:23:52;;;;;;;5.50;3.28;;;;;;;;;;5056992;28;20053;-56
2022/05/30 03:29:49;;;;;;;6.95;4.07;;;;;;;;;;5037729;28;20049;-58
2022/05/30 03:35:18;;;;;;;4.53;3.63;;;;;;;;;;5030476;28;20032;-56
2022/05/30 03:38:03;;;;;;;7.03;4.68;;;;;;;;;;5037009;28;20472;-58
2022/05/30 03:43:43;;;;;;;3.70;3.25;;;;;;;;;;5035892;28;20060;-57
2022/05/30 03:46:41;;;;;;;8.18;4.72;;;;;;;;;;5036354;28;20029;-57
2022/05/30 03:49:38;;;;;;;;;;;;;;;;;;;;;
2022/05/30 03:55:13;;;;;;;6.60;4.03;;;;;;;;;;5035884;28;20386;-58
2022/05/30 04:01:15;;;;;;;;;;;;;;;;;;;;;
2022/05/30 04:04:17;;;;;;;;;;;;;;;;;;;;;
2022/05/30 04:10:25;;;;;;;4.10;3.65;;;;;;;;;;4966031;28;20035;-57
2022/05/30 04:13:32;;;;;;;4.15;3.75;;;;;;;;;;4973037;28;20121;-57
2022/05/30 04:16:18;;;;;;;6.47;4.45;;;;;;;;;;4974429;28;20047;-57
2022/05/30 04:19:04;;;;;;;5.68;5.07;;;;;;;;;;4975139;28;20038;-58
2022/05/30 04:22:01;;;;;;;7.55;5.32;;;;;;;;;;4969080;28;20082;-58
2022/05/30 04:24:33;;;;;;;9.05;5.20;;;;;;;;;;4974091;28;20030;-57
2022/05/30 04:30:36;;;;;;;;;;;;;;;;;;;;;
2022/05/30 04:33:07;;;;;;;5.50;5.00;;;;;;;;;;4961230;28;20125;-58
2022/05/30 04:35:41;;;;;;;7.03;5.88;;;;;;;;;;4974544;28;20500;-57
2022/05/30 04:38:35;;;;;;;7.30;5.57;;;;;;;;;;4974784;28;20046;-58
2022/05/30 04:41:21;;;;;;;6.13;5.32;;;;;;;;;;4973581;28;20077;-56
2022/05/30 04:44:12;;;;;;;5.80;4.35;;;;;;;;;;5035216;28;20549;-55
2022/05/30 04:46:47;;;;;;;7.53;4.07;;;;;;;;;;5040676;28;20025;-56
2022/05/30 04:49:41;;;;;;;7.32;3.95;;;;;;;;;;5033908;28;20049;-56
2022/05/30 04:52:12;;;;;;;6.20;3.88;;;;;;;;;;5034780;28;20034;-56
2022/05/30 04:55:11;;;;;;;5.78;3.85;;;;;;;;;;5034436;28;20043;-57
2022/05/30 04:57:42;;;;;;;5.45;3.17;;;;;;;;;;5021975;28;20029;-58
2022/05/30 05:00:08;;;;;;;3.55;2.80;;;;;;;;;;5032890;28;20120;-57
2022/05/30 05:02:47;;;;;;;5.00;3.35;;;;;;;;;;5052098;28;20647;-57
2022/05/30 05:08:43;;;;;;;;;;;;;;;;;;;;;
2022/05/30 05:14:52;;;;;;;2.95;2.50;;;;;;;;;;5044592;28;20033;-57
2022/05/30 05:17:34;;;;;;;3.63;1.98;;;;;;;;;;5035361;28;20032;-57
2022/05/30 05:20:39;;;;;;;3.80;2.85;;;;;;;;;;5052175;28;20525;-58
2022/05/30 05:23:26;;;;;;;4.53;3.20;;;;;;;;;;5034805;28;20036;-58
2022/05/30 05:31:57;;;;;;;3.33;2.50;;;;;;;;;;5018011;28;20064;-58
2022/05/30 05:34:43;;;;;;;4.22;2.78;;;;;;;;;;5010944;28;20053;-58
2022/05/30 05:40:32;;;;;;;3.67;2.35;;;;;;;;;;5014042;28;20030;-57
2022/05/30 05:46:58;;;;;;;5.25;2.70;;;;;;;;;;5000497;28;20022;-58
2022/05/30 05:52:56;;;;;;;;;;;;;;;;;;;;;
2022/05/30 05:55:28;;;;;;;6.75;3.08;;;;;;;;;;4956428;28;20049;-58
2022/05/30 05:58:31;;;;;;;6.57;3.33;;;;;;;;;;4980531;28;20431;-57
2022/05/30 06:07:26;;;;;;;4.25;3.33;;;;;;;;;;5014705;28;20033;-58
2022/05/30 06:19:19;;;;;;;4.85;3.75;;;;;;;;;;5015499;28;20045;-59
2022/05/30 06:21:51;;;;;;;5.63;3.85;;;;;;;;;;4979861;28;20439;-58
2022/05/30 06:27:26;;;;;;;6.22;3.33;;;;;;;;;;4985779;28;20065;-58
2022/05/30 06:30:14;;;;;;;4.50;3.47;;;;;;;;;;5004870;28;20085;-58
2022/05/30 06:32:53;;;;;;;5.93;2.90;;;;;;;;;;5015269;28;20392;-59
2022/05/30 06:35:44;;;;;;;11.68;3.20;;;;;;;;;;5015192;28;20475;-58
2022/05/30 06:41:19;;;;;;;3.10;2.40;;;;;;;;;;5001454;28;20395;-59
2022/05/30 06:44:05;;;;;;;3.15;2.55;;;;;;;;;;4966615;28;20034;-59
2022/05/30 06:47:03;;;;;;;10.40;3.40;;;;;;;;;;5015693;28;20061;-59
2022/05/30 06:49:47;;;;;;;9.90;4.22;;;;;;;;;;5007987;28;20089;-59
2022/05/30 06:52:17;;;;;;;3.70;2.60;;;;;;;;;;5015432;28;20092;-59
2022/05/30 06:55:02;;;;;;;3.88;2.85;;;;;;;;;;4998446;28;20046;-59
2022/05/30 07:00:51;;;;;;;3.78;2.10;;;;;;;;;;5028216;28;20053;-59
2022/05/30 07:09:43;;;;;;;2.70;2.00;;;;;;;;;;4994722;28;20093;-59
2022/05/30 07:15:24;;;;;;;5.57;3.10;;;;;;;;;;4992091;28;20025;-58
2022/05/30 07:18:00;;;;;;;3.42;2.67;;;;;;;;;;5016645;28;20034;-59
2022/05/30 07:20:46;;;;;;;3.55;2.65;;;;;;;;;;5035894;28;20026;-59
2022/05/30 07:26:08;;;;;;;;;;;;;;;;;;;;;
2022/05/30 07:32:03;;;;;;;3.38;2.15;;;;;;;;;;5035586;28;20514;-58
2022/05/30 07:34:43;;;;;;;3.88;1.90;;;;;;;;;;5018401;28;20613;-59
2022/05/30 07:37:15;;;;;;;4.90;2.20;;;;;;;;;;5013419;28;20085;-59
2022/05/30 07:39:51;;;;;;;4.50;2.17;;;;;;;;;;4997633;28;20084;-59
2022/05/30 07:42:36;;;;;;;4.53;2.88;;;;;;;;;;4977352;28;20408;-58
2022/05/30 07:51:46;;;;;;;4.72;1.55;;;;;;;;;;4935658;29;20102;-59
2022/05/30 08:00:29;;;;;;;5.22;2.30;;;;;;;;;;5010423;28;20032;-59
2022/05/30 08:03:11;;;;;;;3.38;2.30;;;;;;;;;;4994060;28;20065;-59
2022/05/30 08:06:08;;;;;;;;;;;;;;;;;;;;;
2022/05/30 08:14:42;;;;;;;4.30;2.28;;;;;;;;;;4916435;29;20036;-59
2022/05/30 08:17:31;;;;;;;4.68;2.47;;;;;;;;;;4970818;28;20042;-59
2022/05/30 08:20:01;;;;;;;4.00;2.60;;;;;;;;;;4973976;28;20102;-59
2022/05/30 08:25:51;;;;;;;5.82;3.15;;;;;;;;;;4964792;28;20113;-59
2022/05/30 08:28:30;;;;;;;;;;;;;;;;;;;;;
2022/05/30 08:31:09;;;;;;;3.28;2.50;;;;;;;;;;4968128;28;20057;-59
2022/05/30 08:33:41;;;;;;;3.63;2.20;;;;;;;;;;4973844;28;20049;-59
2022/05/30 08:36:21;;;;;;;2.67;1.67;;;;;;;;;;4975722;28;20093;-59
2022/05/30 08:42:07;;;;;;;;;;;;;;;;;;;;;
2022/05/30 08:44:42;;;;;;;2.58;1.70;;;;;;;;;;5008832;28;20101;-58
2022/05/30 08:47:51;;;;;;;2.47;1.77;;;;;;;;;;4999522;28;20448;-59
2022/05/30 08:50:44;;;;;;;3.38;1.67;;;;;;;;;;5015355;28;20464;-58
2022/05/30 08:53:45;;;;;;;;;;;;;;;;;;;;;
2022/05/30 08:57:00;;;;;;;6.43;2.00;;;;;;;;;;5014936;28;20140;-59
2022/05/30 09:03:00;;;;;;;;;;;;;;;;;;;;;
2022/05/30 09:11:55;;;;;;;4.68;1.23;;;;;;;;;;4958236;28;20035;-59
2022/05/30 09:14:56;;;;;;;4.30;1.13;;;;;;;;;;4971240;28;20118;-59
2022/05/30 09:17:38;;;;;;;3.55;1.60;;;;;;;;;;4953418;28;20038;-59
2022/05/30 09:20:37;;;;;;;1.98;1.02;;;;;;;;;;5014916;28;20479;-59
2022/05/30 09:23:12;;;;;;;1.45;0.95;;;;;;;;;;4999130;28;20045;-59
2022/05/30 09:32:06;;;;;;;2.80;1.27;;;;;;;;;;4952390;28;20138;-59
2022/05/30 09:35:07;;;;;;;4.40;1.15;;;;;;;;;;4951765;28;20586;-59
2022/05/30 09:37:55;;;;;;;;;;;;;;;;;;4995762;28;20527;-59
2022/05/30 09:40:49;;;;;;;3.38;1.25;;;;;;;;;;5012743;28;19912;-59
2022/05/30 09:43:34;;;;;;;4.30;1.80;;;;;;;;;;5011998;28;20382;-58
2022/05/30 09:46:19;;;;;;;4.72;1.10;;;;;;;;;;5011729;28;20029;-58
2022/05/30 09:49:37;;;;;;;6.20;1.15;;;;;;;;;;5011555;28;20041;-58
2022/05/30 09:55:29;;;;;;;;;;;;;;;;;;;;;
2022/05/30 10:01:28;;;;;;;2.78;0.98;;;;;;;;;;5013914;28;20045;-58
2022/05/30 10:04:18;;;;;;;2.42;0.90;;;;;;;;;;4996729;28;20040;-58
2022/05/30 10:07:04;;;;;;;2.55;0.93;;;;;;;;;;5034363;28;20080;-58
2022/05/30 10:12:49;;;;;;;;;;;;;;;;;;;;;
2022/05/30 10:15:46;;;;;;;1.48;0.65;;;;;;;;;;5037380;28;20382;-58
2022/05/30 10:18:38;;;;;;;2.58;1.13;;;;;;;;;;5037034;28;20059;-58
2022/05/30 10:21:25;;;;;;;1.98;1.02;;;;;;;;;;5037781;28;20032;-58
2022/05/30 10:29:35;;;;;;;2.63;1.02;;;;;;;;;;5037087;28;20037;-58
2022/05/30 10:35:38;;;;;;;2.25;1.42;;;;;;;;;;5037075;28;20033;-58
2022/05/30 10:38:26;;;;;;;2.70;1.38;;;;;;;;;;5038027;28;20208;-58
2022/05/30 10:40:52;;;;;;;2.22;0.90;;;;;;;;;;5024705;28;20065;-58
2022/05/30 10:47:05;;;;;;;3.90;0.95;;;;;;;;;;5032764;28;20037;-58
2022/05/30 10:49:59;;;;;;;3.17;0.93;;;;;;;;;;5036960;28;20045;-58
2022/05/30 10:52:46;;;;;;;2.15;0.85;;;;;;;;;;5037191;28;20029;-58
2022/05/30 10:55:33;;;;;;;3.50;1.42;;;;;;;;;;5037497;28;20030;-58
2022/05/30 11:07:41;;;;;;;2.22;1.08;;;;;;;;;;5023276;28;20487;-58
2022/05/30 11:16:36;;;;;;;6.32;1.10;;;;;;;;;;5035986;28;20444;-59
2022/05/30 11:19:12;;;;;;;2.85;1.17;;;;;;;;;;5035541;28;20029;-59
2022/05/30 11:22:02;;;;;;;1.83;1.10;;;;;;;;;;5037216;28;20025;-59
2022/05/30 11:24:42;;;;;;;2.20;1.50;;;;;;;;;;5036050;28;20037;-59
2022/05/30 11:27:33;;;;;;;3.70;1.45;;;;;;;;;;5033553;28;20738;-59
2022/05/30 11:30:26;;;;;;;2.17;0.73;;;;;;;;;;5036415;28;20026;-59
2022/05/30 11:33:11;;;;;;;3.88;1.25;;;;;;;;;;5036246;28;20065;-59
2022/05/30 11:36:05;;;;;;;3.15;1.05;;;;;;;;;;5036158;28;20033;-57
2022/05/30 11:42:12;;;;;;;1.42;0.98;;;;;;;;;;4956775;29;20040;-58
2022/05/30 11:48:28;;;;;;;2.53;1.08;;;;;;;;;;4951282;29;20055;-58
2022/05/30 11:51:28;;;;;;;1.30;0.68;;;;;;;;;;4954823;29;20089;-59
2022/05/30 11:57:31;;;;;;;;;;;;;;;;;;;;;
2022/05/30 12:00:22;;;;;;;1.88;1.05;;;;;;;;;;5003798;28;20038;-59
2022/05/30 12:03:00;;;;;;;;;;;;;;;;;;5002693;28;20446;-59
2022/05/30 12:05:45;;;;;;;1.98;0.90;;;;;;;;;;4993305;28;19996;-59
2022/05/30 12:08:40;;;;;;;2.25;1.00;;;;;;;;;;4993622;28;20034;-59
2022/05/30 12:11:33;;;;;;;2.70;0.88;;;;;;;;;;5013440;28;20542;-59
2022/05/30 12:14:37;;;;;;;1.27;0.80;;;;;;;;;;5013071;28;20037;-59
2022/05/30 12:26:57;;;;;;;3.13;1.10;;;;;;;;;;4992208;28;20052;-59
2022/05/30 12:32:39;;;;;;;3.95;1.23;;;;;;;;;;4998102;28;20046;-59
2022/05/30 12:39:23;;;;;;;2.35;1.00;;;;;;;;;;5014963;28;20112;-59
2022/05/30 12:44:47;;;;;;;2.83;1.30;;;;;;;;;;5012232;28;20065;-58
2022/05/30 12:47:43;;;;;;;1.67;0.98;;;;;;;;;;5014389;28;20030;-58
2022/05/30 12:50:34;;;;;;;1.40;0.80;;;;;;;;;;4999589;28;20085;-58
2022/05/30 12:53:34;;;;;;;3.58;1.52;;;;;;;;;;5003300;28;20407;-58
2022/05/30 12:56:14;;;;;;;2.08;0.93;;;;;;;;;;5013862;28;20025;-58
2022/05/30 12:59:00;;;;;;;3.03;1.38;;;;;;;;;;5014323;28;20033;-58
2022/05/30 13:01:56;;;;;;;1.75;1.00;;;;;;;;;;5014549;28;20036;-58
2022/05/30 13:04:34;;;;;;;1.70;0.75;;;;;;;;;;5015006;28;20033;-58
2022/05/30 13:07:04;;;;;;;7.07;1.20;;;;;;;;;;4985583;28;20057;-58
2022/05/30 13:10:11;;;;;;;2.00;1.13;;;;;;;;;;5013592;28;20038;-58
2022/05/30 13:13:14;;;;;;;1.52;0.77;;;;;;;;;;5014696;28;20034;-59
2022/05/30 13:18:50;;;;;;;1.92;1.10;;;;;;;;;;4973671;28;20472;-59
2022/05/30 13:21:39;;;;;;;;;;;;;;;;;;;;;
2022/05/30 13:24:33;;;;;;;2.25;1.25;;;;;;;;;;4985771;28;20044;-59
2022/05/30 13:27:29;;;;;;;3.03;1.23;;;;;;;;;;5014166;28;20033;-59
2022/05/30 13:30:40;;;;;;;1.73;0.95;;;;;;;;;;4996760;28;20484;-59
2022/05/30 13:33:33;;;;;;;2.80;1.33;;;;;;;;;;5030036;28;20054;-58
2022/05/30 13:36:18;;;;;;;1.85;0.93;;;;;;;;;;5034645;28;20105;-58
2022/05/30 13:39:00;;;;;;;3.45;1.50;;;;;;;;;;5022803;28;20057;-58
2022/05/30 13:41:35;;;;;;;2.00;1.02;;;;;;;;;;5038102;28;20045;-58
2022/05/30 13:50:38;;;;;;;2.00;1.00;;;;;;;;;;4938344;29;20110;-58
2022/05/30 13:57:01;;;;;;;6.57;0.80;;;;;;;;;;4938472;29;20060;-59
2022/05/30 14:00:09;;;;;;;;;;;;;;;;;;;;;
2022/05/30 14:03:07;;;;;;;1.92;0.95;;;;;;;;;;4938357;29;20039;-59
2022/05/30 14:05:48;;;;;;;5.10;1.00;;;;;;;;;;5016429;28;20025;-59
2022/05/30 14:08:39;;;;;;;2.60;1.10;;;;;;;;;;5024512;28;20034;-59
2022/05/30 14:14:25;;;;;;;3.55;1.10;;;;;;;;;;5031483;28;20037;-59
2022/05/30 14:16:58;;;;;;;4.90;1.67;;;;;;;;;;5014921;28;20512;-59
2022/05/30 14:26:06;;;;;;;;;;;;;;;;;;;;;
2022/05/30 14:29:06;;;;;;;2.00;1.10;;;;;;;;;;4995371;28;20369;-59
2022/05/30 14:34:52;;;;;;;2.83;1.27;;;;;;;;;;4936053;29;20107;-59
2022/05/30 14:37:58;;;;;;;2.13;1.23;;;;;;;;;;4937051;29;20035;-59
2022/05/30 14:40:39;;;;;;;2.65;1.23;;;;;;;;;;5011283;28;20325;-58
2022/05/30 14:43:36;;;;;;;1.65;0.73;;;;;;;;;;5017888;28;20359;-59
2022/05/30 14:46:26;;;;;;;2.15;1.02;;;;;;;;;;4998884;28;20034;-59
2022/05/30 14:49:01;;;;;;;2.38;1.00;;;;;;;;;;5016640;28;20494;-57
2022/05/30 14:51:52;;;;;;;2.45;0.93;;;;;;;;;;4983075;28;20032;-60
2022/05/30 14:54:40;;;;;;;2.10;0.90;;;;;;;;;;5017741;28;20026;-59
2022/05/30 14:57:24;;;;;;;2.03;0.90;;;;;;;;;;5017048;28;20033;-58
2022/05/30 15:00:19;;;;;;;2.78;0.85;;;;;;;;;;5017415;28;20026;-58
2022/05/30 15:06:02;;;;;;;2.42;1.00;;;;;;;;;;5016662;28;20045;-58
2022/05/30 15:08:45;;;;;;;3.38;1.10;;;;;;;;;;4998629;28;20034;-58
2022/05/30 15:11:24;;;;;;;4.47;1.35;;;;;;;;;;4998381;28;20037;-58
2022/05/30 15:14:07;;;;;;;2.58;1.17;;;;;;;;;;4999970;28;20472;-57
2022/05/30 15:16:43;;;;;;;1.70;0.90;;;;;;;;;;4998569;28;20356;-57
2022/05/30 15:19:37;;;;;;;5.50;1.38;;;;;;;;;;4998269;28;20433;-57
2022/05/30 15:22:32;;;;;;;2.55;0.80;;;;;;;;;;5009570;28;20041;-58
2022/05/30 15:25:12;;;;;;;1.70;1.13;;;;;;;;;;5017091;28;20036;-57
2022/05/30 15:31:15;;;;;;;2.55;1.50;;;;;;;;;;5011606;28;19913;-58
2022/05/30 15:33:46;;;;;;;2.45;1.38;;;;;;;;;;5029550;28;20042;-58
2022/05/30 15:39:43;;;;;;;2.55;1.42;;;;;;;;;;5034744;28;20418;-58
2022/05/30 15:42:20;;;;;;;2.90;1.27;;;;;;;;;;5036539;28;20034;-58
2022/05/30 15:45:20;;;;;;;2.15;1.27;;;;;;;;;;5035756;28;20471;-57
2022/05/30 15:47:53;;;;;;;1.73;0.93;;;;;;;;;;5050764;28;20495;-57
2022/05/30 15:50:40;;;;;;;2.10;1.15;;;;;;;;;;5035964;28;20031;-57
2022/05/30 15:59:11;;;;;;;;;;;;;;;;;;5025740;28;20036;-57
2022/05/30 16:04:50;;;;;;;2.67;1.27;;;;;;;;;;4997334;28;20473;-57
2022/05/30 16:07:20;;;;;;;2.45;0.70;;;;;;;;;;4997756;28;20539;-57
2022/05/30 16:15:55;;;;;;;5.15;1.60;;;;;;;;;;4983671;28;20053;-57
2022/05/30 16:18:36;;;;;;;4.10;2.13;;;;;;;;;;5011615;28;20041;-58
2022/05/30 16:30:50;;;;;;;3.53;1.60;;;;;;;;;;4958384;28;20027;-58
2022/05/30 16:33:19;;;;;;;2.05;1.00;;;;;;;;;;4995198;28;20073;-59
2022/05/30 16:38:55;;;;;;;2.37;1.20;;;;;;;;;;4998007;28;20057;-59
2022/05/30 16:42:00;;;;;;;2.33;1.30;;;;;;;;;;5034574;28;20108;-58
2022/05/30 16:50:40;;;;;;;3.40;1.45;;;;;;;;;;5018163;28;20117;-59
2022/05/30 16:59:27;;;;;;;1.83;0.98;;;;;;;;;;5018163;28;20029;-58
2022/05/30 17:02:05;;;;;;;2.08;1.17;;;;;;;;;;5035264;28;20029;-59
2022/05/30 17:04:46;;;;;;;2.05;0.85;;;;;;;;;;5034540;28;20044;-58
2022/05/30 17:07:18;;;;;;;1.90;0.88;;;;;;;;;;5052314;28;20522;-59
2022/05/30 17:10:11;;;;;;;1.52;0.80;;;;;;;;;;5004899;28;20065;-58
2022/05/30 17:16:31;;;;;;;;;;;;;;;;;;;;;
2022/05/30 17:19:23;;;;;;;1.48;0.93;;;;;;;;;;4996074;28;20040;-58
2022/05/30 17:21:56;;;;;;;1.40;0.68;;;;;;;;;;5011631;28;20375;-58
2022/05/30 17:24:51;;;;;;;;;;;;;;;;;;;;;
2022/05/30 17:30:31;;;;;;;5.20;0.75;;;;;;;;;;5034323;28;20033;-57
2022/05/30 17:33:16;;;;;;;1.60;1.02;;;;;;;;;;5032085;28;20058;-58
2022/05/30 17:39:04;;;;;;;2.20;0.90;;;;;;;;;;5002679;28;20034;-58
2022/05/30 17:41:52;;;;;;;2.50;1.13;;;;;;;;;;5033787;28;20032;-57
2022/05/30 17:44:46;;;;;;;3.80;1.00;;;;;;;;;;5034054;28;20348;-58
2022/05/30 17:47:40;;;;;;;1.70;0.73;;;;;;;;;;5034576;28;20410;-58
2022/05/30 17:50:19;;;;;;;2.03;0.93;;;;;;;;;;5033771;28;20072;-56
2022/05/30 17:53:15;;;;;;;2.00;0.68;;;;;;;;;;5034114;28;20037;-57
2022/05/30 17:59:20;;;;;;;2.33;0.90;;;;;;;;;;5019891;28;20044;-58
2022/05/30 18:02:17;;;;;;;2.45;1.08;;;;;;;;;;5021521;28;20124;-58
2022/05/30 18:08:18;;;;;;;2.92;1.05;;;;;;;;;;5033329;28;20499;-56
2022/05/30 18:11:08;;;;;;;2.13;0.90;;;;;;;;;;5034525;28;20475;-58
2022/05/30 18:17:37;;;;;;;2.30;0.80;;;;;;;;;;4972763;28;20507;-58
2022/05/30 18:20:25;;;;;;;2.40;1.13;;;;;;;;;;4938460;28;20027;-58
2022/05/30 18:23:34;;;;;;;3.10;0.80;;;;;;;;;;5005502;28;20030;-57
2022/05/30 18:26:18;;;;;;;1.70;0.95;;;;;;;;;;5032700;28;20112;-57
2022/05/30 18:29:11;;;;;;;2.63;1.27;;;;;;;;;;5019988;28;20036;-57
2022/05/30 18:41:07;;;;;;;5.50;1.33;;;;;;;;;;4970512;28;20059;-57
2022/05/30 18:44:15;;;;;;;;;;;;;;;;;;;;;
2022/05/30 18:46:55;;;;;;;1.98;1.10;;;;;;;;;;5036325;28;20383;-56
2022/05/30 18:52:19;;;;;;;1.73;1.02;;;;;;;;;;5036268;28;20045;-58
2022/05/30 19:01:32;;;;;;;;;;;;;;;;;;;;;
2022/05/30 19:04:34;;;;;;;2.10;1.42;;;;;;;;;;5020012;28;20076;-57
2022/05/30 19:07:12;;;;;;;;;;;;;;;;;;;;;
2022/05/30 19:09:58;;;;;;;1.85;1.17;;;;;;;;;;5036717;28;20118;-53
2022/05/30 19:18:44;;;;;;;2.08;1.20;;;;;;;;;;5036245;28;20052;-57
2022/05/30 19:21:26;;;;;;;3.70;1.48;;;;;;;;;;5017776;28;20086;-57
2022/05/30 19:24:30;;;;;;;3.85;1.42;;;;;;;;;;5036797;28;20025;-56
2022/05/30 19:30:34;;;;;;;;;;;;;;;;;;;;;
2022/05/30 19:33:22;;;;;;;2.78;1.30;;;;;;;;;;4973946;28;20039;-57
2022/05/30 19:35:55;;;;;;;3.55;1.67;;;;;;;;;;4974571;28;20141;-58
2022/05/30 19:38:35;;;;;;;3.08;1.13;;;;;;;;;;4972229;28;20408;-57
2022/05/30 19:41:09;;;;;;;3.45;1.65;;;;;;;;;;4974775;28;20106;-56
2022/05/30 19:43:39;;;;;;;2.78;1.35;;;;;;;;;;4974732;28;20079;-56
2022/05/30 19:49:35;;;;;;;3.60;1.00;;;;;;;;;;5033749;28;20067;-57
2022/05/30 20:00:47;;;;;;;2.50;1.25;;;;;;;;;;5035282;28;20037;-57
2022/05/30 20:03:38;;;;;;;2.38;1.40;;;;;;;;;;5033379;28;20531;-57
2022/05/30 20:06:35;;;;;;;2.17;1.40;;;;;;;;;;5012670;28;20038;-56
2022/05/30 20:12:10;;;;;;;3.08;2.03;;;;;;;;;;4954828;29;20086;-57
2022/05/30 20:14:58;;;;;;;2.25;1.25;;;;;;;;;;4969590;28;20046;-57
2022/05/30 20:17:56;;;;;;;1.85;1.10;;;;;;;;;;5020221;28;20045;-57
2022/05/30 20:21:01;;;;;;;1.98;1.05;;;;;;;;;;5015118;28;20522;-57
2022/05/30 20:23:49;;;;;;;5.43;2.10;;;;;;;;;;4993012;28;20149;-57
2022/05/30 20:26:34;;;;;;;2.00;1.27;;;;;;;;;;4977572;28;20485;-57
2022/05/30 20:29:21;;;;;;;3.30;1.45;;;;;;;;;;4993743;28;20026;-57
2022/05/30 20:31:57;;;;;;;2.42;1.30;;;;;;;;;;5001773;28;20044;-57
2022/05/30 20:34:32;;;;;;;2.88;1.40;;;;;;;;;;5035387;28;20146;-57
2022/05/30 20:37:16;;;;;;;1.88;1.20;;;;;;;;;;5036036;28;20033;-57
2022/05/30 20:40:07;;;;;;;3.03;1.70;;;;;;;;;;5030261;28;20128;-57
2022/05/30 20:45:46;;;;;;;2.40;1.40;;;;;;;;;;5035198;28;20371;-57
2022/05/30 20:48:31;;;;;;;2.83;1.15;;;;;;;;;;5035268;28;20032;-56
2022/05/30 20:51:30;;;;;;;3.95;2.28;;;;;;;;;;5024588;28;20490;-56
2022/05/30 20:57:09;;;;;;;7.22;5.20;;;;;;;;;;4973425;28;20022;-57
2022/05/30 20:59:48;;;;;;;7.47;5.80;;;;;;;;;;5025202;28;20029;-57
2022/05/30 21:02:48;;;;;;;4.05;1.95;;;;;;;;;;5043509;28;20049;-57
2022/05/30 21:08:50;;;;;;;3.10;1.70;;;;;;;;;;4995731;28;20033;-57
2022/05/30 21:14:32;;;;;;;4.38;1.65;;;;;;;;;;5046581;28;20035;-57
2022/05/30 21:17:13;;;;;;;2.25;1.02;;;;;;;;;;5028835;28;20021;-56
2022/05/30 21:20:14;;;;;;;4.70;2.35;;;;;;;;;;5029397;28;20025;-55
2022/05/30 21:22:56;;;;;;;4.35;1.90;;;;;;;;;;5028814;28;20055;-57
2022/05/30 21:28:47;;;;;;;5.95;2.72;;;;;;;;;;5005363;28;20026;-57
2022/05/30 21:31:37;;;;;;;8.98;4.22;;;;;;;;;;5025011;28;20113;-57
2022/05/30 21:34:26;;;;;;;2.37;1.20;;;;;;;;;;5004608;28;20084;-55
2022/05/30 21:37:11;;;;;;;1.73;0.95;;;;;;;;;;4985741;28;20318;-56
2022/05/30 21:43:51;;;;;;;4.97;2.42;;;;;;;;;;4947202;29;20036;-55
2022/05/30 21:45:55;;;;;;;2.40;1.30;;;;;;;;;;4939251;29;20208;-56
2022/05/30 21:48:34;;;;;;;2.80;1.60;;;;;;;;;;4946948;29;20394;-57
2022/05/30 21:53:56;;;;;;;2.42;1.58;;;;;;;;;;4948022;29;20110;-57
2022/05/30 21:56:34;;;;;;;5.88;1.65;;;;;;;;;;4949579;28;20031;-57
2022/05/30 21:59:15;;;;;;;3.67;2.20;;;;;;;;;;4986201;28;20031;-55
2022/05/30 22:07:54;;;;;;;;;;;;;;;;;;;;;
2022/05/30 22:10:42;;;;;;;3.08;1.38;;;;;;;;;;5011658;28;20070;-57
2022/05/30 22:13:18;;;;;;;1.77;1.25;;;;;;;;;;5030548;28;20045;-54
2022/05/30 22:19:03;;;;;;;1.90;1.30;;;;;;;;;;5026439;28;20037;-57
2022/05/30 22:24:46;;;;;;;2.25;1.45;;;;;;;;;;5008869;28;20034;-55
2022/05/30 22:27:35;;;;;;;3.13;1.65;;;;;;;;;;5009727;28;20098;-56
2022/05/30 22:30:24;;;;;;;5.90;2.20;;;;;;;;;;5009515;28;20400;-57
2022/05/30 22:33:26;;;;;;;4.38;2.33;;;;;;;;;;5009566;28;20109;-57
2022/05/30 22:35:57;;;;;;;2.95;2.05;;;;;;;;;;4960669;28;20043;-56
2022/05/30 22:38:43;;;;;;;3.03;1.55;;;;;;;;;;5048730;28;20150;-56
2022/05/30 22:41:24;;;;;;;2.50;1.58;;;;;;;;;;5050990;28;20036;-56
2022/05/30 22:44:19;;;;;;;2.20;1.50;;;;;;;;;;5050906;28;20033;-56
2022/05/30 22:47:05;;;;;;;3.08;1.67;;;;;;;;;;5050488;28;20028;-56
2022/05/30 22:49:31;;;;;;;2.75;1.73;;;;;;;;;;5049822;28;20085;-56
2022/05/30 22:52:08;;;;;;;4.20;2.13;;;;;;;;;;5049706;28;20057;-56
2022/05/30 22:57:39;;;;;;;5.18;1.40;;;;;;;;;;5026207;28;20060;-56
2022/05/30 23:03:42;;;;;;;;;;;;;;;;;;;;;
2022/05/30 23:06:21;;;;;;;2.13;1.23;;;;;;;;;;4950938;29;20123;-56
2022/05/30 23:09:00;;;;;;;1.95;1.15;;;;;;;;;;4950610;29;20043;-55
2022/05/30 23:12:01;;;;;;;5.68;1.88;;;;;;;;;;4948562;29;20047;-55
2022/05/30 23:14:31;;;;;;;;;;;;;;;;;;4965543;29;20090;-57
2022/05/30 23:17:33;;;;;;;2.70;1.38;;;;;;;;;;4951237;29;19906;-56
2022/05/30 23:20:13;;;;;;;1.95;1.25;;;;;;;;;;4981289;28;20471;-56
2022/05/30 23:26:02;;;;;;;2.33;1.33;;;;;;;;;;5049809;28;20084;-57
2022/05/30 23:28:56;;;;;;;2.95;1.98;;;;;;;;;;5049807;28;20034;-56
2022/05/30 23:34:38;;;;;;;2.70;1.38;;;;;;;;;;4969290;28;20066;-57
2022/05/30 23:46:06;;;;;;;;;;;;;;;;;;5050007;28;20037;-56
2022/05/30 23:51:51;;;;;;;4.80;1.42;;;;;;;;;;5020997;28;20129;-57
2022/05/30 23:54:21;;;;;;;3.63;1.42;;;;;;;;;;5049702;28;20029;-57
2022/05/30 23:57:22;;;;;;;2.00;1.60;;;;;;;;;;5049372;28;20034;-57
